createdAt,value
2019-03-27T00:01:17.396Z,4.53
2019-03-27T00:03:50.972Z,5.30
2019-03-27T00:06:24.518Z,5.60
2019-03-27T00:08:57.074Z,4.70
2019-03-27T00:11:30.261Z,5.05
2019-03-27T00:14:04.050Z,5.40
2019-03-27T00:16:36.078Z,5.10
2019-03-27T00:19:09.232Z,6.03
2019-03-27T00:21:42.158Z,4.80
2019-03-27T00:24:14.417Z,5.00
2019-03-27T00:26:49.138Z,4.70
2019-03-27T00:29:21.073Z,5.13
2019-03-27T00:31:54.156Z,5.33
2019-03-27T00:34:26.953Z,5.10
2019-03-27T00:36:59.254Z,5.37
2019-03-27T00:39:32.940Z,5.80
2019-03-27T00:42:07.260Z,5.70
2019-03-27T00:44:40.569Z,5.90
2019-03-27T00:47:16.781Z,6.00
2019-03-27T00:49:51.348Z,4.80
2019-03-27T00:52:24.121Z,5.17
2019-03-27T00:54:58.360Z,5.60
2019-03-27T00:57:33.239Z,6.10
2019-03-27T01:00:08.861Z,4.73
2019-03-27T01:02:42.296Z,5.10
2019-03-27T01:05:16.632Z,5.67
2019-03-27T01:07:48.579Z,6.20
2019-03-27T01:10:21.334Z,6.30
2019-03-27T01:12:54.345Z,6.87
2019-03-27T01:15:39.129Z,5.97
2019-03-27T01:18:03.335Z,6.63
2019-03-27T01:20:36.263Z,6.40
2019-03-27T01:23:09.456Z,6.73
2019-03-27T01:25:46.245Z,5.63
2019-03-27T01:28:18.768Z,7.63
2019-03-27T01:30:53.389Z,7.33
2019-03-27T01:33:29.265Z,7.67
2019-03-27T01:36:02.749Z,7.10
2019-03-27T01:38:36.299Z,6.53
2019-03-27T01:41:09.682Z,7.73
2019-03-27T01:43:43.518Z,7.00
2019-03-27T01:46:18.792Z,8.07
2019-03-27T01:49:02.975Z,7.30
2019-03-27T01:51:36.656Z,7.40
2019-03-27T01:54:08.558Z,7.40
2019-03-27T01:56:40.488Z,8.30
2019-03-27T01:59:13.577Z,9.87
2019-03-27T02:01:47.459Z,8.47
2019-03-27T02:04:20.904Z,9.63
2019-03-27T02:06:55.529Z,8.60
2019-03-27T02:09:27.620Z,10.00
2019-03-27T02:12:01.153Z,9.27
2019-03-27T02:14:33.512Z,10.03
2019-03-27T02:17:06.666Z,8.70
2019-03-27T02:19:39.668Z,8.60
2019-03-27T02:22:13.169Z,10.30
2019-03-27T02:24:49.264Z,10.30
2019-03-27T02:27:21.184Z,11.17
2019-03-27T02:29:54.578Z,9.60
2019-03-27T02:32:27.694Z,9.90
2019-03-27T02:35:01.712Z,10.40
2019-03-27T02:37:33.676Z,10.07
2019-03-27T02:40:07.662Z,11.63
2019-03-27T02:42:39.656Z,11.23
2019-03-27T02:45:14.398Z,10.37
2019-03-27T02:47:47.910Z,11.33
2019-03-27T02:50:21.027Z,11.30
2019-03-27T02:52:57.404Z,13.77
2019-03-27T02:55:30.907Z,12.97
2019-03-27T02:58:02.754Z,12.00
2019-03-27T03:00:37.705Z,11.67
2019-03-27T03:03:10.901Z,11.70
2019-03-27T03:05:44.834Z,13.97
2019-03-27T03:08:17.930Z,12.27
2019-03-27T03:10:52.373Z,13.43
2019-03-27T03:13:24.956Z,14.07
2019-03-27T03:15:56.854Z,14.10
2019-03-27T03:18:29.894Z,15.30
2019-03-27T03:21:02.222Z,13.85
2019-03-27T03:23:35.872Z,15.87
2019-03-27T03:26:08.933Z,13.83
2019-03-27T03:28:41.959Z,15.73
2019-03-27T03:31:14.020Z,15.10
2019-03-27T03:33:45.965Z,15.90
2019-03-27T03:36:17.891Z,15.53
2019-03-27T03:38:51.807Z,16.70
2019-03-27T03:41:24.006Z,16.50
2019-03-27T03:43:58.175Z,18.20
2019-03-27T03:46:32.949Z,18.10
2019-03-27T03:49:07.261Z,16.90
2019-03-27T03:51:39.583Z,18.70
2019-03-27T03:54:12.542Z,18.00
2019-03-27T03:56:46.040Z,20.33
2019-03-27T03:59:22.313Z,19.40
2019-03-27T04:02:01.666Z,19.30
2019-03-27T04:04:37.780Z,21.23
2019-03-27T04:07:11.250Z,21.07
2019-03-27T04:09:43.720Z,21.40
2019-03-27T04:12:18.238Z,22.37
2019-03-27T04:14:52.217Z,21.40
2019-03-27T04:17:24.245Z,20.97
2019-03-27T04:19:58.054Z,21.40
2019-03-27T04:22:30.490Z,20.77
2019-03-27T04:25:03.272Z,22.50
2019-03-27T04:27:36.546Z,22.00
2019-03-27T04:30:10.620Z,21.97
2019-03-27T04:32:44.751Z,22.57
2019-03-27T04:35:19.664Z,22.40
2019-03-27T04:37:56.228Z,24.23
2019-03-27T04:40:30.441Z,23.07
2019-03-27T04:43:03.403Z,22.27
2019-03-27T04:45:36.290Z,21.10
2019-03-27T04:48:08.571Z,21.50
2019-03-27T04:50:42.392Z,22.47
2019-03-27T04:53:16.380Z,22.30
2019-03-27T04:55:48.818Z,21.33
2019-03-27T04:58:21.440Z,22.80
2019-03-27T05:00:53.533Z,23.10
2019-03-27T05:03:27.495Z,21.80
2019-03-27T05:06:01.506Z,22.10
2019-03-27T05:08:33.375Z,22.25
2019-03-27T05:11:06.427Z,22.77
2019-03-27T05:13:41.720Z,22.80
2019-03-27T05:16:16.210Z,23.25
2019-03-27T05:18:50.543Z,22.27
2019-03-27T05:21:24.483Z,22.60
2019-03-27T05:23:56.511Z,24.00
2019-03-27T05:26:30.572Z,24.07
2019-03-27T05:29:04.697Z,25.27
2019-03-27T05:31:39.388Z,22.67
2019-03-27T05:34:12.641Z,24.00
2019-03-27T05:36:46.715Z,24.83
2019-03-27T05:39:20.738Z,25.20
2019-03-27T05:41:53.717Z,27.07
2019-03-27T05:44:30.080Z,24.30
2019-03-27T05:47:02.343Z,26.77
2019-03-27T05:49:36.670Z,25.50
2019-03-27T05:52:08.593Z,26.20
2019-03-27T05:54:42.732Z,26.90
2019-03-27T05:57:15.741Z,26.70
2019-03-27T05:59:48.773Z,25.27
2019-03-27T06:02:20.789Z,27.20
2019-03-27T06:04:55.574Z,25.50
2019-03-27T06:07:27.794Z,26.67
2019-03-27T06:09:59.962Z,27.45
2019-03-27T06:12:34.381Z,25.95
2019-03-27T06:15:08.190Z,25.07
2019-03-27T06:17:41.889Z,24.67
2019-03-27T06:20:15.086Z,25.73
2019-03-27T06:22:48.901Z,25.20
2019-03-27T06:25:21.481Z,24.90
2019-03-27T06:27:55.064Z,24.93
2019-03-27T06:30:28.770Z,26.67
2019-03-27T06:33:02.884Z,25.90
2019-03-27T06:35:36.902Z,26.67
2019-03-27T06:38:10.701Z,25.77
2019-03-27T06:40:43.898Z,30.00
2019-03-27T06:43:16.314Z,24.83
2019-03-27T06:45:48.916Z,25.27
2019-03-27T06:48:26.415Z,26.47
2019-03-27T06:50:58.047Z,28.67
2019-03-27T06:53:30.975Z,28.90
2019-03-27T06:56:04.199Z,26.60
2019-03-27T06:58:53.589Z,28.23
2019-03-27T07:01:15.972Z,26.23
2019-03-27T07:03:49.926Z,26.40
2019-03-27T07:06:21.811Z,26.80
2019-03-27T07:08:54.953Z,27.37
2019-03-27T07:11:27.987Z,27.55
2019-03-27T07:14:00.983Z,27.43
2019-03-27T07:16:34.071Z,29.07
2019-03-27T07:19:07.116Z,30.40
2019-03-27T07:21:39.450Z,27.00
2019-03-27T07:24:12.784Z,28.70
2019-03-27T07:26:46.165Z,29.23
2019-03-27T07:29:22.715Z,29.83
2019-03-27T07:31:55.110Z,29.80
2019-03-27T07:34:28.080Z,30.23
2019-03-27T07:37:00.061Z,30.87
2019-03-27T07:39:35.272Z,31.37
2019-03-27T07:42:09.249Z,30.80
2019-03-27T07:44:42.210Z,29.37
2019-03-27T07:47:17.624Z,30.33
2019-03-27T07:49:52.169Z,29.33
2019-03-27T07:52:25.397Z,29.83
2019-03-27T07:54:58.285Z,28.13
2019-03-27T07:57:33.184Z,29.57
2019-03-27T08:00:07.843Z,30.80
2019-03-27T08:02:41.206Z,29.10
2019-03-27T08:05:23.853Z,28.50
2019-03-27T08:08:03.280Z,30.17
2019-03-27T08:10:37.459Z,27.43
2019-03-27T08:13:10.310Z,27.20
2019-03-27T08:15:44.058Z,28.83
2019-03-27T08:18:24.171Z,28.77
2019-03-27T08:20:59.218Z,29.80
2019-03-27T08:23:31.976Z,30.83
2019-03-27T08:26:06.045Z,29.37
2019-03-27T08:28:40.516Z,27.10
2019-03-27T08:31:14.353Z,29.67
2019-03-27T08:33:46.470Z,29.80
2019-03-27T08:36:25.435Z,29.70
2019-03-27T08:38:57.561Z,32.50
2019-03-27T08:41:34.371Z,29.10
2019-03-27T08:44:08.417Z,29.57
2019-03-27T08:46:42.102Z,29.53
2019-03-27T08:49:21.819Z,28.53
2019-03-27T08:51:49.707Z,28.93
2019-03-27T08:54:26.284Z,27.03
2019-03-27T08:56:59.027Z,27.33
2019-03-27T08:59:31.956Z,27.00
2019-03-27T09:02:04.645Z,29.33
2019-03-27T09:04:37.682Z,28.47
2019-03-27T09:07:10.759Z,27.17
2019-03-27T09:09:44.243Z,27.07
2019-03-27T09:12:19.247Z,29.33
2019-03-27T09:14:56.997Z,26.73
2019-03-27T09:17:30.593Z,26.63
2019-03-27T09:20:03.603Z,24.73
2019-03-27T09:22:38.026Z,24.93
2019-03-27T09:25:14.713Z,25.10
2019-03-27T09:27:47.560Z,25.60
2019-03-27T09:30:20.340Z,24.87
2019-03-27T09:32:54.512Z,24.67
2019-03-27T09:35:32.761Z,26.50
2019-03-27T09:38:04.845Z,24.93
2019-03-27T09:40:41.874Z,23.70
2019-03-27T09:43:15.723Z,23.80
2019-03-27T09:45:49.780Z,23.10
2019-03-27T09:48:21.754Z,22.47
2019-03-27T09:50:56.725Z,23.20
2019-03-27T09:53:30.668Z,23.50
2019-03-27T09:56:18.099Z,22.37
2019-03-27T09:58:42.709Z,20.33
2019-03-27T10:01:16.734Z,20.43
2019-03-27T10:03:53.994Z,21.30
2019-03-27T10:06:33.523Z,20.47
2019-03-27T10:09:20.901Z,21.30
2019-03-27T10:12:01.044Z,21.43
2019-03-27T10:14:43.643Z,18.43
2019-03-27T10:17:37.011Z,19.27
2019-03-27T10:20:16.427Z,18.27
2019-03-27T10:22:51.692Z,19.33
2019-03-27T10:25:32.318Z,19.27
2019-03-27T10:28:15.567Z,20.43
2019-03-27T10:30:52.473Z,19.70
2019-03-27T10:33:28.313Z,19.50
2019-03-27T10:36:04.851Z,18.43
2019-03-27T10:38:41.587Z,18.40
2019-03-27T10:41:26.181Z,16.90
2019-03-27T10:44:01.201Z,17.10
2019-03-27T10:46:36.586Z,17.60
2019-03-27T10:49:12.222Z,17.27
2019-03-27T10:51:48.833Z,16.73
2019-03-27T10:54:22.736Z,15.73
2019-03-27T10:57:01.123Z,16.70
2019-03-27T10:59:40.315Z,16.40
2019-03-27T11:02:12.964Z,16.07
2019-03-27T11:04:53.546Z,15.83
2019-03-27T11:07:26.943Z,15.93
2019-03-27T11:09:59.916Z,15.57
2019-03-27T11:12:34.210Z,16.10
2019-03-27T11:15:29.557Z,16.40
2019-03-27T11:18:04.961Z,17.37
2019-03-27T11:20:37.311Z,16.70
2019-03-27T11:23:11.589Z,18.23
2019-03-27T11:25:47.726Z,16.80
2019-03-27T11:28:21.688Z,16.70
2019-03-27T11:30:57.271Z,17.62
2019-03-27T11:33:31.118Z,18.02
2019-03-27T11:36:03.175Z,17.73
2019-03-27T11:38:37.822Z,19.73
2019-03-27T11:41:12.367Z,18.00
2019-03-27T11:43:55.156Z,19.03
2019-03-27T11:46:25.193Z,18.27
2019-03-27T11:48:58.145Z,20.13
2019-03-27T11:51:31.235Z,20.00
2019-03-27T11:54:05.322Z,19.43
2019-03-27T11:56:40.241Z,19.20
2019-03-27T11:59:13.366Z,23.33
2019-03-27T12:01:46.332Z,22.03
2019-03-27T12:04:19.581Z,21.70
2019-03-27T12:06:52.402Z,22.33
2019-03-27T12:09:25.424Z,20.50
2019-03-27T12:11:58.180Z,22.27
2019-03-27T12:14:31.282Z,22.23
2019-03-27T12:17:04.393Z,21.50
2019-03-27T12:19:38.004Z,22.13
2019-03-27T12:22:14.324Z,20.70
2019-03-27T12:24:46.444Z,19.97
2019-03-27T12:27:22.310Z,18.83
2019-03-27T12:29:58.022Z,19.80
2019-03-27T12:32:31.406Z,19.03
2019-03-27T12:35:04.471Z,18.40
2019-03-27T12:37:38.421Z,20.10
2019-03-27T12:40:11.773Z,19.25
2019-03-27T12:42:46.534Z,18.82
2019-03-27T12:45:19.501Z,18.67
2019-03-27T12:47:52.512Z,18.53
2019-03-27T12:50:25.419Z,18.43
2019-03-27T12:52:57.503Z,19.70
2019-03-27T12:55:37.599Z,18.63
2019-03-27T12:58:18.190Z,17.47
2019-03-27T13:00:53.830Z,19.77
2019-03-27T13:03:33.764Z,18.90
2019-03-27T13:06:15.999Z,18.53
2019-03-27T13:08:56.911Z,17.63
2019-03-27T13:11:36.746Z,17.60
2019-03-27T13:14:14.368Z,18.93
2019-03-27T13:16:52.297Z,19.77
2019-03-27T13:19:26.316Z,19.60
2019-03-27T13:21:59.008Z,20.00
2019-03-27T13:24:31.698Z,20.03
2019-03-27T13:27:04.863Z,20.67
2019-03-27T13:29:38.702Z,19.03
2019-03-27T13:32:12.591Z,19.57
2019-03-27T13:34:47.096Z,20.70
2019-03-27T13:37:21.881Z,21.45
2019-03-27T13:39:53.889Z,21.60
2019-03-27T13:42:29.058Z,21.20
2019-03-27T13:45:01.952Z,21.50
2019-03-27T13:47:34.761Z,22.23
2019-03-27T13:50:12.696Z,24.20
2019-03-27T13:52:48.588Z,21.93
2019-03-27T13:55:21.129Z,19.97
2019-03-27T13:57:55.853Z,20.83
2019-03-27T14:00:28.719Z,21.37
2019-03-27T14:03:02.757Z,20.00
2019-03-27T14:05:34.907Z,21.10
2019-03-27T14:08:07.821Z,20.93
2019-03-27T14:10:41.122Z,20.80
2019-03-27T14:13:18.318Z,18.93
2019-03-27T14:15:54.150Z,19.70
2019-03-27T14:18:31.026Z,21.30
2019-03-27T14:21:06.153Z,19.17
2019-03-27T14:23:40.882Z,18.70
2019-03-27T14:26:13.863Z,18.00
2019-03-27T14:28:47.260Z,13.93
2019-03-27T14:31:19.915Z,15.50
2019-03-27T14:33:53.774Z,17.07
2019-03-27T14:36:25.648Z,17.67
2019-03-27T14:38:58.880Z,17.03
2019-03-27T14:41:32.009Z,16.93
2019-03-27T14:44:04.912Z,15.13
2019-03-27T14:46:37.860Z,17.07
2019-03-27T14:49:10.072Z,17.20
2019-03-27T14:51:45.695Z,16.07
2019-03-27T14:54:19.923Z,15.97
2019-03-27T14:56:53.019Z,14.70
2019-03-27T14:59:24.940Z,14.70
2019-03-27T15:02:00.011Z,14.20
2019-03-27T15:04:31.809Z,16.17
2019-03-27T15:07:04.863Z,14.20
2019-03-27T15:09:37.943Z,14.43
2019-03-27T15:12:12.185Z,14.30
2019-03-27T15:14:45.998Z,14.53
2019-03-27T15:17:18.377Z,15.70
2019-03-27T15:19:53.005Z,15.60
2019-03-27T15:22:27.041Z,14.43
2019-03-27T15:25:01.004Z,15.93
2019-03-27T15:27:35.109Z,17.03
2019-03-27T15:30:12.553Z,16.95
2019-03-27T15:32:43.033Z,20.40
2019-03-27T15:35:15.440Z,20.97
2019-03-27T15:37:49.588Z,25.10
2019-03-27T15:40:40.245Z,21.77
2019-03-27T15:43:12.399Z,18.20
2019-03-27T15:45:45.061Z,18.20
2019-03-27T15:48:19.798Z,16.83
2019-03-27T15:50:58.458Z,17.80
2019-03-27T15:53:28.162Z,16.17
2019-03-27T15:56:00.299Z,16.73
2019-03-27T15:58:34.294Z,18.73
2019-03-27T16:01:08.226Z,18.63
2019-03-27T16:03:40.278Z,20.53
2019-03-27T16:06:13.249Z,21.10
2019-03-27T16:08:46.254Z,19.10
2019-03-27T16:11:18.995Z,17.65
2019-03-27T16:13:53.408Z,18.23
2019-03-27T16:16:25.301Z,19.10
2019-03-27T16:18:57.852Z,19.60
2019-03-27T16:21:31.563Z,18.50
2019-03-27T16:24:06.687Z,19.93
2019-03-27T16:26:40.397Z,17.73
2019-03-27T16:29:13.924Z,17.40
2019-03-27T16:31:47.175Z,18.62
2019-03-27T16:34:19.807Z,18.83
2019-03-27T16:36:54.218Z,18.50
2019-03-27T16:39:28.271Z,18.57
2019-03-27T16:42:02.346Z,19.40
2019-03-27T16:44:34.350Z,19.33
2019-03-27T16:47:08.576Z,17.90
2019-03-27T16:49:40.438Z,19.50
2019-03-27T16:52:13.573Z,19.17
2019-03-27T16:54:46.480Z,19.27
2019-03-27T16:57:20.491Z,20.10
2019-03-27T16:59:52.322Z,21.10
2019-03-27T17:02:25.419Z,21.47
2019-03-27T17:04:59.346Z,21.23
2019-03-27T17:07:32.646Z,22.10
2019-03-27T17:10:04.984Z,21.90
2019-03-27T17:12:37.571Z,21.87
2019-03-27T17:15:10.729Z,22.57
2019-03-27T17:17:43.521Z,22.17
2019-03-27T17:20:17.173Z,22.50
2019-03-27T17:22:49.469Z,27.77
2019-03-27T17:25:22.174Z,22.23
2019-03-27T17:27:56.024Z,45.50
2019-03-27T17:30:31.788Z,33.60
2019-03-27T17:33:04.561Z,22.10
2019-03-27T17:35:37.628Z,20.87
2019-03-27T17:38:11.080Z,71.27
2019-03-27T17:40:43.674Z,54.13
2019-03-27T17:43:16.513Z,90.87
2019-03-27T17:45:49.735Z,38.43
2019-03-27T17:48:22.309Z,25.00
2019-03-27T17:50:54.888Z,22.07
2019-03-27T17:53:31.807Z,20.72
2019-03-27T17:56:04.720Z,24.30
2019-03-27T17:58:37.715Z,23.12
2019-03-27T18:01:09.563Z,21.27
2019-03-27T18:03:43.759Z,19.50
2019-03-27T18:06:16.962Z,18.60
2019-03-27T18:08:49.745Z,20.70
2019-03-27T18:11:22.641Z,20.40
2019-03-27T18:13:55.733Z,20.63
2019-03-27T18:16:28.817Z,20.10
2019-03-27T18:19:01.748Z,20.03
2019-03-27T18:21:34.685Z,20.57
2019-03-27T18:24:07.778Z,20.57
2019-03-27T18:26:42.742Z,20.30
2019-03-27T18:29:17.112Z,20.20
2019-03-27T18:31:49.398Z,22.60
2019-03-27T18:34:22.355Z,21.93
2019-03-27T18:36:56.022Z,22.33
2019-03-27T18:39:28.881Z,20.57
2019-03-27T18:42:01.666Z,19.00
2019-03-27T18:44:34.826Z,19.63
2019-03-27T18:47:07.953Z,20.07
2019-03-27T18:49:40.931Z,21.12
2019-03-27T18:52:13.941Z,23.00
2019-03-27T18:54:46.943Z,22.03
2019-03-27T18:57:20.102Z,20.95
2019-03-27T18:59:52.878Z,21.67
2019-03-27T19:02:25.925Z,20.83
2019-03-27T19:04:58.976Z,21.42
2019-03-27T19:07:32.035Z,21.50
2019-03-27T19:10:04.102Z,20.57
2019-03-27T19:12:37.983Z,22.00
2019-03-27T19:15:12.332Z,22.63
2019-03-27T19:17:46.058Z,20.40
2019-03-27T19:20:20.326Z,21.83
2019-03-27T19:22:52.407Z,22.20
2019-03-27T19:25:26.036Z,26.33
2019-03-27T19:28:00.062Z,26.60
2019-03-27T19:30:32.395Z,25.53
2019-03-27T19:33:05.409Z,24.30
2019-03-27T19:35:38.302Z,24.23
2019-03-27T19:38:11.299Z,21.70
2019-03-27T19:40:44.266Z,22.90
2019-03-27T19:43:18.299Z,21.75
2019-03-27T19:45:57.534Z,21.77
2019-03-27T19:48:31.206Z,21.80
2019-03-27T19:51:05.547Z,20.20
2019-03-27T19:53:39.346Z,21.00
2019-03-27T19:56:11.245Z,20.50
2019-03-27T19:58:44.280Z,21.53
2019-03-27T20:01:17.349Z,21.60
2019-03-27T20:03:50.320Z,22.27
2019-03-27T20:06:22.450Z,22.10
2019-03-27T20:08:56.973Z,23.03
2019-03-27T20:11:31.156Z,21.83
2019-03-27T20:14:05.525Z,21.03
2019-03-27T20:16:39.444Z,20.90
2019-03-27T20:19:13.748Z,19.55
2019-03-27T20:21:47.324Z,19.50
2019-03-27T20:24:24.443Z,20.60
2019-03-27T20:26:56.546Z,19.57
2019-03-27T20:29:29.371Z,20.00
2019-03-27T20:32:02.363Z,20.97
2019-03-27T20:34:36.474Z,18.80
2019-03-27T20:37:09.920Z,20.70
2019-03-27T20:39:46.269Z,22.00
2019-03-27T20:42:22.307Z,21.20
2019-03-27T20:44:56.936Z,22.23
2019-03-27T20:47:29.573Z,21.10
2019-03-27T20:50:03.569Z,21.40
2019-03-27T20:52:35.510Z,21.37
2019-03-27T20:55:08.831Z,22.07
2019-03-27T20:57:41.339Z,21.37
2019-03-27T21:00:15.868Z,19.73
2019-03-27T21:02:49.545Z,22.20
2019-03-27T21:05:22.562Z,22.65
2019-03-27T21:07:56.603Z,20.67
2019-03-27T21:10:28.426Z,23.40
2019-03-27T21:13:02.615Z,23.07
2019-03-27T21:15:34.430Z,23.27
2019-03-27T21:18:08.599Z,22.33
2019-03-27T21:20:40.642Z,20.30
2019-03-27T21:23:14.309Z,20.67
2019-03-27T21:25:46.503Z,22.10
2019-03-27T21:28:19.488Z,21.43
2019-03-27T21:30:52.564Z,22.17
2019-03-27T21:33:25.598Z,21.37
2019-03-27T21:35:59.513Z,20.23
2019-03-27T21:38:32.866Z,21.27
2019-03-27T21:41:08.396Z,20.27
2019-03-27T21:43:40.767Z,21.40
2019-03-27T21:46:13.579Z,20.40
2019-03-27T21:48:47.689Z,22.20
2019-03-27T21:51:20.592Z,20.50
2019-03-27T21:53:52.814Z,20.30
2019-03-27T21:56:25.723Z,20.53
2019-03-27T21:59:02.556Z,21.50
2019-03-27T22:01:34.852Z,20.87
2019-03-27T22:04:09.729Z,21.23
2019-03-27T22:06:43.744Z,21.27
2019-03-27T22:09:16.735Z,19.90
2019-03-27T22:11:51.280Z,20.13
2019-03-27T22:14:23.167Z,20.43
2019-03-27T22:16:56.800Z,20.07
2019-03-27T22:19:28.886Z,21.17
2019-03-27T22:22:02.952Z,19.33
2019-03-27T22:24:35.857Z,19.10
2019-03-27T22:27:07.889Z,22.07
2019-03-27T22:29:41.757Z,19.10
2019-03-27T22:32:14.878Z,18.50
2019-03-27T22:34:46.864Z,19.27
2019-03-27T22:37:21.255Z,18.37
2019-03-27T22:39:54.815Z,17.97
2019-03-27T22:42:28.998Z,18.63
2019-03-27T22:45:00.913Z,18.97
2019-03-27T22:47:34.975Z,19.10
2019-03-27T22:50:09.109Z,20.37
2019-03-27T22:52:44.016Z,20.13
2019-03-27T22:55:17.585Z,18.93
2019-03-27T22:57:52.342Z,17.80
2019-03-27T23:00:53.926Z,19.40
2019-03-27T23:03:26.050Z,19.30
2019-03-27T23:05:59.145Z,18.20
2019-03-27T23:08:32.034Z,17.63
2019-03-27T23:11:05.540Z,18.87
2019-03-27T23:13:38.947Z,18.70
2019-03-27T23:16:13.133Z,19.27
2019-03-27T23:18:46.974Z,20.70
2019-03-27T23:21:21.652Z,19.33
2019-03-27T23:23:56.120Z,19.50
2019-03-27T23:26:29.444Z,19.27
2019-03-27T23:29:02.227Z,19.63
2019-03-27T23:31:35.158Z,20.77
2019-03-27T23:34:08.459Z,21.50
2019-03-27T23:36:41.134Z,21.13
2019-03-27T23:39:13.328Z,21.97
2019-03-27T23:41:48.120Z,21.60
2019-03-27T23:44:20.430Z,20.40
2019-03-27T23:46:54.336Z,21.50
2019-03-27T23:49:29.199Z,21.90
2019-03-27T23:52:03.240Z,21.03
2019-03-27T23:54:35.255Z,19.40
2019-03-27T23:57:08.334Z,21.20
2019-03-27T23:59:43.308Z,22.33
